Huvudsida
METAR-TAF:

METAR-TAF

Flygplatser :

Malmö Airport

Malmö, Sverige

latitud: 55-33N, longitud: 013-22E, höjd: 106 m

Aktuellt väderrapport

Denna rapport gjordes för 22 minuter sedan, klockan 04:50 UTC
Vind 4 kt från sydost
Temperatur 5°C
Fuktighet 81%
Tryck 1040 hPa
Sikt 10 km eller mer
Mulet på en höjd av 1500 ft

METAR: ESMS 170450Z 14004KT 9999 OVC015 05/02 Q1040

Tid: 06:12 (05:12 UTC)

Väderprognos

Denna rapport gjordes för 5 timmar och 55 minuter sedan, klockan 23:17 UTC
Prognos gäller från 17 kl. 00 UTC till 17 kl. 24 UTC
Vind 8 kt från sydost
Sikt 10 km eller mer
Brutna moln på en höjd av 1500 ft
Temporärt
från 17 kl. 00 UTC till 17 kl. 09 UTC
Brutna moln på en höjd av 1200 ft
Temporärt
från 17 kl. 16 UTC till 17 kl. 21 UTC
Sikt: 3000 m
fuktdis
Temporärt
från 17 kl. 21 UTC till 17 kl. 24 UTC
Brutna moln på en höjd av 1200 ft

TAF: ESMS 162317Z 1700/1724 14008KT 9999 BKN015 TEMPO 1700/1709 BKN012 TEMPO 1716/1721 3000 BR TEMPO 1721/1724 BKN012

Aktuella väderrapporter och prognoser från 4000 flygplatser (METAR- och TAF-rapporter).

De tillgängliga stationerna syns som gula och röda prickar på kartan.

För musen över prickarna för att se namnen på stationerna.

Klicka sedan för att få väderrapporter och prognoser.

För att ändra kartan: Klicka på de gröna knapparna med ett svart kors på för att zooma in; den gröna knappen med ett streck på för att zooma ut; eller på de gröna pilarna för angränsande kartor.


METAR-TAF: